WetterOnline ( https://www.wetteronline.de )

Wetter aktuell Ilmenau

Aktuelles Wetter: Schmücke (948m)

6-stündlich | Neueste Meldungen
Ortszeit Temperatur Wetter
Do, 25.04. 14:00 18.7° C leicht bewölkt
Do, 25.04. 8:00 6.1° C wolkig
Do, 25.04. 2:00 5.4° C leicht bewölkt
Mi, 24.04. 20:00 17.3° C bewölkt
Mi, 24.04. 14:00 19.7° C wolkenlos
Mi, 24.04. 8:00 9.8° C wolkig
Mi, 24.04. 2:00 10.6° C wolkig
Di, 23.04. 20:00 11.9° C bedeckt
Ortszeit Temperatur Wetter
Do, 25.04. 15:30 19.5° C wolkig
Do, 25.04. 15:20 19.5° C wolkig
Do, 25.04. 15:10 19.5° C wolkig
Do, 25.04. 15:00 19.5° C leicht bewölkt
Do, 25.04. 14:50 19.5° C wolkig
Do, 25.04. 14:40 19.4° C wolkig
Do, 25.04. 14:30 19.3° C wolkig
Do, 25.04. 14:00 18.7° C leicht bewölkt
Do, 25.04. 13:30 18.3° C wolkenlos
Do, 25.04. 13:00 18.5° C wolkenlos
Do, 25.04. 12:30 18.3° C wolkenlos
Ortszeit Relative Feuchte Sichtweite
Do, 25.04. 14:00 32% >70 km
Do, 25.04. 8:00 75% 55 km
Do, 25.04. 2:00 81% 65 km
Mi, 24.04. 20:00 46% 45 km
Mi, 24.04. 14:00 36% >70 km
Mi, 24.04. 8:00 64% >70 km
Mi, 24.04. 2:00 65% 55 km
Di, 23.04. 20:00 64% 30 km
Ortszeit Relative Feuchte Sichtweite
Do, 25.04. 15:30 29% 55 km
Do, 25.04. 15:20 29% -
Do, 25.04. 15:10 28% -
Do, 25.04. 15:00 28% 45 km
Do, 25.04. 14:50 28% -
Do, 25.04. 14:40 30% -
Do, 25.04. 14:30 30% >70 km
Do, 25.04. 14:00 32% >70 km
Do, 25.04. 13:30 34% 50 km
Do, 25.04. 13:00 35% >70 km
Do, 25.04. 12:30 36% 60 km
Ortszeit Niederschlagsmenge Niederschlagsart
Do, 25.04. 14:00 0.0 l/m2 in 6 Std. -
Do, 25.04. 8:00 0.1 l/m2 in 12 Std. -
Do, 25.04. 2:00 0.1 l/m2 in 6 Std. Regen
Mi, 24.04. 20:00 0.0 l/m2 in 12 Std. -
Mi, 24.04. 14:00 0.0 l/m2 in 6 Std. -
Mi, 24.04. 8:00 0.1 l/m2 in 12 Std. -
Mi, 24.04. 2:00 0.1 l/m2 in 6 Std. Regen
Di, 23.04. 20:00 0.0 l/m2 in 12 Std. -
Ortszeit Niederschlagsmenge Niederschlagsart
Do, 25.04. 15:30 0.0 l/m2 in 1 Std. -
Do, 25.04. 15:20 keine Meldung -
Do, 25.04. 15:10 keine Meldung -
Do, 25.04. 15:00 0.0 l/m2 in 1 Std. -
Do, 25.04. 14:50 keine Meldung -
Do, 25.04. 14:40 keine Meldung -
Do, 25.04. 14:30 0.0 l/m2 in 1 Std. -
Do, 25.04. 14:00 0.0 l/m2 in 1 Std. -
Do, 25.04. 13:30 0.0 l/m2 in 1 Std. -
Do, 25.04. 13:00 0.0 l/m2 in 1 Std. -
Do, 25.04. 12:30 0.0 l/m2 in 1 Std. -
Ortszeit Stärke Spitze Richtung
km/h Bft. km/h Grad Sektor
Do, 25.04. 14:00 14 3 40 160° S
Do, 25.04. 8:00 7 2 32 230° SW
Do, 25.04. 2:00 18 3 68 240° SW
Mi, 24.04. 20:00 13 3 46 130° SO
Mi, 24.04. 14:00 14 3 40 200° S
Mi, 24.04. 8:00 18 3 40 190° S
Mi, 24.04. 2:00 14 3 43 150° SO
Di, 23.04. 20:00 14 3 36 120° SO
Ortszeit Stärke Spitze Richtung
km/h Bft. km/h Grad Sektor
Do, 25.04. 15:30 17 3 39 140° SO
Do, 25.04. 15:20 17 3 - 140° SO
Do, 25.04. 15:10 18 3 - 130° SO
Do, 25.04. 15:00 19 3 39 140° SO
Do, 25.04. 14:50 19 3 - 140° SO
Do, 25.04. 14:40 14 3 - 150° SO
Do, 25.04. 14:30 18 3 40 200° S
Do, 25.04. 14:00 14 3 40 160° S
Do, 25.04. 13:30 14 3 40 190° S
Do, 25.04. 13:00 17 3 33 190° S
Do, 25.04. 12:30 15 3 33 180° S
Ortszeit Untergrenze Bedeckung Gattung
total tief tief mittel hoch
Do, 25.04. 14:00 9000 m 3/8 0/8 - - -
Do, 25.04. 8:00 7500 m 8/8 0/8 - - -
Do, 25.04. 2:00 6300 m 3/8 1/8 - - -
Mi, 24.04. 20:00 2100 m 8/8 4/8 - - -
Mi, 24.04. 14:00 - 0/8 0/8 - - -
Mi, 24.04. 8:00 3300 m 8/8 8/8 - - -
Mi, 24.04. 2:00 1800 m 8/8 2/8 - - -
Di, 23.04. 20:00 3000 m 8/8 8/8 - - -
Ortszeit Bedeckungsgrad in Achtel und Wolkenuntergrenze
Do, 25.04. 15:30 8(9000m)
Do, 25.04. 15:20 8(9000m)
Do, 25.04. 15:10 8(9000m)
Do, 25.04. 15:00 8(9000m)
Do, 25.04. 14:50 8(9000m)
Do, 25.04. 14:40 8(9000m)
Do, 25.04. 14:30 8(9000m)
Do, 25.04. 14:00 3(9000m)
Do, 25.04. 13:30 keine Wolken
Do, 25.04. 13:00 keine Wolken
Do, 25.04. 12:30 keine Wolken
Ortszeit Stationsdruck (hPa) Tendenz (hPa in 3 Std.)
Do, 25.04. 14:00 904 - 0,4
Do, 25.04. 8:00 905 + 1,6
Do, 25.04. 2:00 902 + 0,9
Mi, 24.04. 20:00 899 + 0,1
Mi, 24.04. 14:00 899 + 0,4
Mi, 24.04. 8:00 897 + 0,9
Mi, 24.04. 2:00 896 + 0,5
Di, 23.04. 20:00 895 - 0,1
Ortszeit Stationsdruck (hPa) Tendenz (hPa in 3 Std.)
Do, 25.04. 15:30 904 - 0,8
Do, 25.04. 15:20 904 keine Meldung
Do, 25.04. 15:10 904 keine Meldung
Do, 25.04. 15:00 904 - 0,9
Do, 25.04. 14:50 904 keine Meldung
Do, 25.04. 14:40 904 keine Meldung
Do, 25.04. 14:30 904 - 0,7
Do, 25.04. 14:00 904 - 0,4
Do, 25.04. 13:30 905 + 0,1
Do, 25.04. 13:00 905 - 0,2
Do, 25.04. 12:30 905 + 0,2
Ortszeit Schneehöhe (cm)
Do, 25.04. 14:00 0
Do, 25.04. 8:00 0
Do, 25.04. 2:00 0
Mi, 24.04. 20:00 0
Mi, 24.04. 14:00 0
Mi, 24.04. 8:00 0
Mi, 24.04. 2:00 0
Di, 23.04. 20:00 0
Ortszeit Schneehöhe (cm)
Do, 25.04. 15:30 0
Do, 25.04. 15:20 0
Do, 25.04. 15:10 0
Do, 25.04. 15:00 0
Do, 25.04. 14:50 0
Do, 25.04. 14:40 0
Do, 25.04. 14:30 0
Do, 25.04. 14:00 0
Do, 25.04. 13:30 0
Do, 25.04. 13:00 0
Do, 25.04. 12:30 0
Link zu dieser Seite / Seite empfehlen

Das Wetter in ...